sensor_id;sensor_type;location;lat;lon;timestamp;P1;durP1;ratioP1;P2;durP2;ratioP2
595;SDS011;19946;49.306;11.350;2024-03-22T10:02:01;4.13;;;4.13;;
595;SDS011;19946;49.306;11.350;2024-03-22T10:21:28;4.37;;;4.27;;
595;SDS011;19946;49.306;11.350;2024-03-22T10:24:29;5.23;;;5.23;;
595;SDS011;19946;49.306;11.350;2024-03-22T10:27:30;4.40;;;4.40;;
595;SDS011;19946;49.306;11.350;2024-03-22T10:30:30;4.30;;;4.27;;
595;SDS011;19946;49.306;11.350;2024-03-22T10:33:34;4.43;;;4.43;;
595;SDS011;19946;49.306;11.350;2024-03-22T10:36:34;5.00;;;4.90;;
595;SDS011;19946;49.306;11.350;2024-03-22T10:39:35;4.30;;;4.30;;
595;SDS011;19946;49.306;11.350;2024-03-22T10:42:39;4.63;;;4.53;;
595;SDS011;19946;49.306;11.350;2024-03-22T10:45:40;4.30;;;4.30;;
595;SDS011;19946;49.306;11.350;2024-03-22T10:48:41;4.47;;;4.47;;
595;SDS011;19946;49.306;11.350;2024-03-22T10:51:45;4.00;;;4.00;;
595;SDS011;19946;49.306;11.350;2024-03-22T10:54:48;4.00;;;4.00;;
595;SDS011;19946;49.306;11.350;2024-03-22T10:57:48;4.00;;;4.00;;
595;SDS011;19946;49.306;11.350;2024-03-22T11:00:52;3.77;;;3.77;;
595;SDS011;19946;49.306;11.350;2024-03-22T11:04:04;3.50;;;3.40;;
595;SDS011;19946;49.306;11.350;2024-03-22T11:20:53;7.10;;;4.00;;
595;SDS011;19946;49.306;11.350;2024-03-22T11:23:54;3.23;;;3.13;;
595;SDS011;19946;49.306;11.350;2024-03-22T11:40:01;3.20;;;3.20;;
595;SDS011;19946;49.306;11.350;2024-03-22T11:43:05;2.93;;;2.87;;
595;SDS011;19946;49.306;11.350;2024-03-22T11:46:06;2.80;;;2.80;;
595;SDS011;19946;49.306;11.350;2024-03-22T11:49:06;3.47;;;3.30;;
595;SDS011;19946;49.306;11.350;2024-03-22T11:52:07;3.17;;;3.13;;
595;SDS011;19946;49.306;11.350;2024-03-22T11:55:10;3.13;;;3.13;;
595;SDS011;19946;49.306;11.350;2024-03-22T11:58:11;3.00;;;2.90;;
595;SDS011;19946;49.306;11.350;2024-03-22T12:04:27;3.10;;;3.00;;
595;SDS011;19946;49.306;11.350;2024-03-22T12:07:33;3.10;;;3.03;;
595;SDS011;19946;49.306;11.350;2024-03-22T12:17:07;9.80;;;3.97;;
595;SDS011;19946;49.306;11.350;2024-03-22T12:23:27;2.60;;;2.50;;
595;SDS011;19946;49.306;11.350;2024-03-22T12:26:28;2.60;;;2.60;;
595;SDS011;19946;49.306;11.350;2024-03-22T12:29:29;2.70;;;2.70;;
595;SDS011;19946;49.306;11.350;2024-03-22T12:32:32;2.30;;;2.30;;
595;SDS011;19946;49.306;11.350;2024-03-22T12:35:32;2.53;;;2.47;;
595;SDS011;19946;49.306;11.350;2024-03-22T12:38:34;2.37;;;2.37;;
595;SDS011;19946;49.306;11.350;2024-03-22T12:48:08;5.40;;;3.27;;
595;SDS011;19946;49.306;11.350;2024-03-22T12:54:25;2.30;;;2.30;;
595;SDS011;19946;49.306;11.350;2024-03-22T13:00:42;2.23;;;2.23;;
595;SDS011;19946;49.306;11.350;2024-03-22T13:10:16;2.43;;;2.33;;
595;SDS011;19946;49.306;11.350;2024-03-22T13:13:17;2.60;;;2.60;;
595;SDS011;19946;49.306;11.350;2024-03-22T13:16:17;2.63;;;2.53;;
595;SDS011;19946;49.306;11.350;2024-03-22T13:19:18;2.53;;;2.43;;
595;SDS011;19946;49.306;11.350;2024-03-22T13:22:18;1.90;;;1.90;;
595;SDS011;19946;49.306;11.350;2024-03-22T13:25:19;1.97;;;1.97;;
595;SDS011;19946;49.306;11.350;2024-03-22T13:28:19;2.10;;;2.07;;
595;SDS011;19946;49.306;11.350;2024-03-22T13:31:22;2.80;;;2.70;;
595;SDS011;19946;49.306;11.350;2024-03-22T13:34:22;2.40;;;2.30;;
595;SDS011;19946;49.306;11.350;2024-03-22T13:37:23;10.73;;;3.70;;
595;SDS011;19946;49.306;11.350;2024-03-22T13:40:23;2.00;;;2.00;;
595;SDS011;19946;49.306;11.350;2024-03-22T13:43:23;2.50;;;2.40;;
595;SDS011;19946;49.306;11.350;2024-03-22T13:46:25;1.50;;;1.50;;
595;SDS011;19946;49.306;11.350;2024-03-22T13:49:26;2.03;;;1.93;;
595;SDS011;19946;49.306;11.350;2024-03-22T13:52:26;1.50;;;1.50;;
595;SDS011;19946;49.306;11.350;2024-03-22T13:55:26;1.70;;;1.70;;
595;SDS011;19946;49.306;11.350;2024-03-22T13:58:27;1.73;;;1.73;;
595;SDS011;19946;49.306;11.350;2024-03-22T14:01:27;1.50;;;1.50;;
595;SDS011;19946;49.306;11.350;2024-03-22T14:04:27;1.70;;;1.70;;
595;SDS011;19946;49.306;11.350;2024-03-22T14:07:29;2.23;;;2.13;;
595;SDS011;19946;49.306;11.350;2024-03-22T14:10:32;1.60;;;1.60;;
595;SDS011;19946;49.306;11.350;2024-03-22T14:13:32;1.70;;;1.70;;
595;SDS011;19946;49.306;11.350;2024-03-22T14:16:33;1.43;;;1.43;;
595;SDS011;19946;49.306;11.350;2024-03-22T14:19:34;1.40;;;1.40;;
595;SDS011;19946;49.306;11.350;2024-03-22T14:22:35;1.80;;;1.70;;
595;SDS011;19946;49.306;11.350;2024-03-22T14:25:35;1.60;;;1.50;;
595;SDS011;19946;49.306;11.350;2024-03-22T14:28:35;1.67;;;1.60;;
595;SDS011;19946;49.306;11.350;2024-03-22T14:31:37;2.07;;;1.87;;
595;SDS011;19946;49.306;11.350;2024-03-22T14:34:38;1.27;;;1.27;;
595;SDS011;19946;49.306;11.350;2024-03-22T14:37:38;1.40;;;1.33;;
595;SDS011;19946;49.306;11.350;2024-03-22T14:40:38;1.07;;;1.07;;
595;SDS011;19946;49.306;11.350;2024-03-22T14:43:39;1.27;;;1.20;;
595;SDS011;19946;49.306;11.350;2024-03-22T14:46:39;0.97;;;0.97;;
595;SDS011;19946;49.306;11.350;2024-03-22T14:49:39;1.03;;;1.03;;
595;SDS011;19946;49.306;11.350;2024-03-22T14:52:40;1.00;;;1.00;;
595;SDS011;19946;49.306;11.350;2024-03-22T14:55:40;1.10;;;1.10;;
595;SDS011;19946;49.306;11.350;2024-03-22T14:58:40;1.40;;;1.30;;
595;SDS011;19946;49.306;11.350;2024-03-22T15:01:42;1.50;;;1.30;;
595;SDS011;19946;49.306;11.350;2024-03-22T15:04:43;1.20;;;1.20;;
595;SDS011;19946;49.306;11.350;2024-03-22T15:07:43;1.53;;;1.27;;
595;SDS011;19946;49.306;11.350;2024-03-22T15:10:43;2.07;;;1.70;;
595;SDS011;19946;49.306;11.350;2024-03-22T15:13:44;2.07;;;1.87;;
595;SDS011;19946;49.306;11.350;2024-03-22T15:16:44;1.20;;;1.20;;
595;SDS011;19946;49.306;11.350;2024-03-22T15:19:45;1.20;;;1.20;;
595;SDS011;19946;49.306;11.350;2024-03-22T15:22:45;1.00;;;1.00;;
595;SDS011;19946;49.306;11.350;2024-03-22T15:25:45;0.93;;;0.93;;
595;SDS011;19946;49.306;11.350;2024-03-22T15:28:47;0.90;;;0.90;;
595;SDS011;19946;49.306;11.350;2024-03-22T15:31:48;1.30;;;1.20;;
595;SDS011;19946;49.306;11.350;2024-03-22T15:34:49;0.90;;;0.90;;
595;SDS011;19946;49.306;11.350;2024-03-22T15:37:49;0.77;;;0.77;;
595;SDS011;19946;49.306;11.350;2024-03-22T15:40:50;1.27;;;0.90;;
595;SDS011;19946;49.306;11.350;2024-03-22T15:43:51;1.10;;;1.10;;
595;SDS011;19946;49.306;11.350;2024-03-22T15:46:52;1.40;;;1.40;;
595;SDS011;19946;49.306;11.350;2024-03-22T15:49:52;1.03;;;1.03;;
595;SDS011;19946;49.306;11.350;2024-03-22T15:52:55;0.80;;;0.80;;
595;SDS011;19946;49.306;11.350;2024-03-22T15:55:55;0.83;;;0.83;;
595;SDS011;19946;49.306;11.350;2024-03-22T15:58:55;0.70;;;0.70;;
595;SDS011;19946;49.306;11.350;2024-03-22T16:01:57;0.70;;;0.70;;
595;SDS011;19946;49.306;11.350;2024-03-22T16:04:57;0.70;;;0.70;;
595;SDS011;19946;49.306;11.350;2024-03-22T16:07:57;1.40;;;1.40;;
595;SDS011;19946;49.306;11.350;2024-03-22T16:10:58;0.60;;;0.60;;
595;SDS011;19946;49.306;11.350;2024-03-22T16:13:58;1.10;;;1.00;;
595;SDS011;19946;49.306;11.350;2024-03-22T16:16:58;2.03;;;1.23;;
595;SDS011;19946;49.306;11.350;2024-03-22T16:19:59;0.57;;;0.57;;
595;SDS011;19946;49.306;11.350;2024-03-22T16:22:59;0.50;;;0.50;;
595;SDS011;19946;49.306;11.350;2024-03-22T16:26:02;0.73;;;0.73;;
595;SDS011;19946;49.306;11.350;2024-03-22T16:29:03;0.80;;;0.80;;
595;SDS011;19946;49.306;11.350;2024-03-22T16:32:03;1.93;;;1.37;;
595;SDS011;19946;49.306;11.350;2024-03-22T16:35:06;0.70;;;0.70;;
595;SDS011;19946;49.306;11.350;2024-03-22T16:38:06;0.90;;;0.90;;
595;SDS011;19946;49.306;11.350;2024-03-22T16:41:07;0.70;;;0.70;;
595;SDS011;19946;49.306;11.350;2024-03-22T16:44:10;0.63;;;0.63;;
595;SDS011;19946;49.306;11.350;2024-03-22T16:47:10;0.77;;;0.77;;
595;SDS011;19946;49.306;11.350;2024-03-22T16:50:11;0.50;;;0.50;;
595;SDS011;19946;49.306;11.350;2024-03-22T16:53:11;0.73;;;0.73;;
595;SDS011;19946;49.306;11.350;2024-03-22T16:56:12;0.60;;;0.60;;
595;SDS011;19946;49.306;11.350;2024-03-22T16:59:13;0.53;;;0.53;;
595;SDS011;19946;49.306;11.350;2024-03-22T17:02:14;0.40;;;0.40;;
595;SDS011;19946;49.306;11.350;2024-03-22T17:05:14;1.03;;;0.93;;
595;SDS011;19946;49.306;11.350;2024-03-22T17:08:14;0.40;;;0.40;;
595;SDS011;19946;49.306;11.350;2024-03-22T17:11:15;0.40;;;0.40;;
595;SDS011;19946;49.306;11.350;2024-03-22T17:14:16;0.97;;;0.97;;
595;SDS011;19946;49.306;11.350;2024-03-22T17:17:16;1.13;;;0.83;;
595;SDS011;19946;49.306;11.350;2024-03-22T17:20:18;0.50;;;0.50;;
595;SDS011;19946;49.306;11.350;2024-03-22T17:23:18;0.57;;;0.57;;
595;SDS011;19946;49.306;11.350;2024-03-22T17:26:18;1.93;;;0.90;;
595;SDS011;19946;49.306;11.350;2024-03-22T17:29:19;0.67;;;0.57;;
595;SDS011;19946;49.306;11.350;2024-03-22T17:32:20;0.37;;;0.37;;
595;SDS011;19946;49.306;11.350;2024-03-22T17:35:21;0.70;;;0.70;;
595;SDS011;19946;49.306;11.350;2024-03-22T17:38:21;0.40;;;0.40;;
595;SDS011;19946;49.306;11.350;2024-03-22T17:41:21;2.43;;;1.43;;
595;SDS011;19946;49.306;11.350;2024-03-22T17:44:22;0.47;;;0.47;;
595;SDS011;19946;49.306;11.350;2024-03-22T17:47:23;0.50;;;0.50;;
595;SDS011;19946;49.306;11.350;2024-03-22T17:50:23;0.50;;;0.50;;
595;SDS011;19946;49.306;11.350;2024-03-22T17:53:23;0.60;;;0.60;;
595;SDS011;19946;49.306;11.350;2024-03-22T17:56:24;0.53;;;0.53;;
595;SDS011;19946;49.306;11.350;2024-03-22T17:59:24;0.47;;;0.47;;
595;SDS011;19946;49.306;11.350;2024-03-22T18:02:25;0.30;;;0.30;;
595;SDS011;19946;49.306;11.350;2024-03-22T18:05:25;0.33;;;0.33;;
595;SDS011;19946;49.306;11.350;2024-03-22T18:08:27;0.40;;;0.40;;
595;SDS011;19946;49.306;11.350;2024-03-22T18:11:27;0.30;;;0.30;;
595;SDS011;19946;49.306;11.350;2024-03-22T18:21:02;0.40;;;0.40;;
595;SDS011;19946;49.306;11.350;2024-03-22T18:24:02;0.33;;;0.33;;
595;SDS011;19946;49.306;11.350;2024-03-22T18:27:04;0.30;;;0.30;;
595;SDS011;19946;49.306;11.350;2024-03-22T18:30:05;0.50;;;0.50;;
595;SDS011;19946;49.306;11.350;2024-03-22T18:33:08;0.30;;;0.30;;
595;SDS011;19946;49.306;11.350;2024-03-22T18:36:08;0.33;;;0.33;;
595;SDS011;19946;49.306;11.350;2024-03-22T18:39:08;0.30;;;0.30;;
595;SDS011;19946;49.306;11.350;2024-03-22T18:42:09;0.30;;;0.30;;
595;SDS011;19946;49.306;11.350;2024-03-22T18:45:09;0.40;;;0.40;;
595;SDS011;19946;49.306;11.350;2024-03-22T18:48:12;0.30;;;0.30;;
595;SDS011;19946;49.306;11.350;2024-03-22T18:51:12;0.20;;;0.20;;
595;SDS011;19946;49.306;11.350;2024-03-22T18:54:14;0.30;;;0.30;;
595;SDS011;19946;49.306;11.350;2024-03-22T18:57:15;0.40;;;0.40;;
595;SDS011;19946;49.306;11.350;2024-03-22T19:00:15;0.30;;;0.30;;
595;SDS011;19946;49.306;11.350;2024-03-22T19:03:15;0.40;;;0.40;;
595;SDS011;19946;49.306;11.350;2024-03-22T19:06:16;0.30;;;0.30;;
595;SDS011;19946;49.306;11.350;2024-03-22T19:09:16;0.30;;;0.30;;
595;SDS011;19946;49.306;11.350;2024-03-22T19:12:17;0.30;;;0.30;;
595;SDS011;19946;49.306;11.350;2024-03-22T19:15:17;0.33;;;0.33;;
595;SDS011;19946;49.306;11.350;2024-03-22T19:18:17;0.30;;;0.30;;
595;SDS011;19946;49.306;11.350;2024-03-22T19:27:52;0.30;;;0.30;;
595;SDS011;19946;49.306;11.350;2024-03-22T19:30:52;0.30;;;0.30;;
595;SDS011;19946;49.306;11.350;2024-03-22T19:33:53;0.30;;;0.30;;
595;SDS011;19946;49.306;11.350;2024-03-22T19:36:54;0.30;;;0.30;;
595;SDS011;19946;49.306;11.350;2024-03-22T19:39:54;0.40;;;0.40;;
595;SDS011;19946;49.306;11.350;2024-03-22T19:42:55;0.30;;;0.30;;
595;SDS011;19946;49.306;11.350;2024-03-22T19:45:55;0.30;;;0.30;;
595;SDS011;19946;49.306;11.350;2024-03-22T19:49:00;0.30;;;0.30;;
595;SDS011;19946;49.306;11.350;2024-03-22T19:52:01;0.30;;;0.30;;
595;SDS011;19946;49.306;11.350;2024-03-22T19:55:03;0.40;;;0.40;;
595;SDS011;19946;49.306;11.350;2024-03-22T19:58:04;0.30;;;0.30;;
595;SDS011;19946;49.306;11.350;2024-03-22T20:01:05;0.30;;;0.30;;
595;SDS011;19946;49.306;11.350;2024-03-22T20:04:05;0.30;;;0.30;;
595;SDS011;19946;49.306;11.350;2024-03-22T20:07:05;0.30;;;0.30;;
595;SDS011;19946;49.306;11.350;2024-03-22T20:10:09;0.57;;;0.57;;
595;SDS011;19946;49.306;11.350;2024-03-22T20:13:10;0.20;;;0.20;;
595;SDS011;19946;49.306;11.350;2024-03-22T20:16:10;0.30;;;0.30;;
595;SDS011;19946;49.306;11.350;2024-03-22T20:19:11;0.20;;;0.20;;
595;SDS011;19946;49.306;11.350;2024-03-22T20:22:11;0.20;;;0.20;;
595;SDS011;19946;49.306;11.350;2024-03-22T20:25:13;0.20;;;0.20;;
595;SDS011;19946;49.306;11.350;2024-03-22T20:28:13;0.40;;;0.40;;
595;SDS011;19946;49.306;11.350;2024-03-22T20:31:13;0.30;;;0.30;;
595;SDS011;19946;49.306;11.350;2024-03-22T20:34:14;0.30;;;0.30;;
